TimePST,TemperatureF,Dew PointF,Humidity,Sea Level PressureIn,VisibilityMPH,Wind Direction,Wind SpeedMPH,Gust SpeedMPH,PrecipitationIn,Events,Conditions,WindDirDegrees,DateUTC
12:53 AM,32.0,30.0,92,30.07,10.0,SE,3.5,-,N/A,,Clear,130,2014-03-03 08:53:00
1:53 AM,32.0,30.0,92,30.08,10.0,Calm,Calm,-,N/A,,Clear,0,2014-03-03 09:53:00
2:53 AM,28.9,28.0,96,30.09,10.0,SSW,4.6,-,N/A,,Clear,200,2014-03-03 10:53:00
3:53 AM,27.0,26.1,96,30.11,10.0,SSW,3.5,-,N/A,,Clear,210,2014-03-03 11:53:00
4:53 AM,28.0,26.1,92,30.11,10.0,SSE,8.1,-,N/A,,Clear,160,2014-03-03 12:53:00
5:53 AM,28.0,27.0,96,30.13,10.0,South,10.4,-,N/A,,Clear,170,2014-03-03 13:53:00
6:53 AM,28.0,26.1,92,30.14,10.0,SSE,8.1,-,N/A,,Clear,160,2014-03-03 14:53:00
7:53 AM,35.1,30.9,85,30.12,10.0,South,10.4,-,N/A,,Clear,180,2014-03-03 15:53:00
8:53 AM,37.0,30.9,79,30.12,10.0,South,9.2,-,N/A,,Clear,190,2014-03-03 16:53:00
9:53 AM,42.1,30.9,65,30.10,10.0,South,5.8,-,N/A,,Clear,190,2014-03-03 17:53:00
10:53 AM,46.0,30.0,54,30.07,10.0,Variable,4.6,-,N/A,,Partly Cloudy,0,2014-03-03 18:53:00
11:53 AM,50.0,32.0,50,30.04,10.0,NNE,6.9,-,N/A,,Clear,30,2014-03-03 19:53:00
12:53 PM,51.1,28.0,41,30.01,10.0,Variable,3.5,-,N/A,,Clear,0,2014-03-03 20:53:00
1:53 PM,53.1,24.1,32,29.96,10.0,SSW,9.2,-,N/A,,Clear,200,2014-03-03 21:53:00
2:53 PM,53.1,25.0,34,29.97,10.0,SSE,3.5,-,N/A,,Clear,150,2014-03-03 22:53:00
3:53 PM,51.1,27.0,39,29.99,10.0,West,9.2,-,N/A,,Clear,260,2014-03-03 23:53:00
4:53 PM,48.0,30.0,50,30.00,10.0,SW,6.9,-,N/A,,Clear,220,2014-03-04 00:53:00
5:53 PM,46.9,28.9,50,30.00,10.0,SW,10.4,-,N/A,,Clear,220,2014-03-04 01:53:00
6:53 PM,43.0,32.0,65,30.03,10.0,South,12.7,-,N/A,,Partly Cloudy,190,2014-03-04 02:53:00
7:53 PM,42.1,32.0,67,30.01,10.0,SSW,11.5,-,N/A,,Mostly Cloudy,200,2014-03-04 03:53:00
8:53 PM,39.0,30.9,73,30.01,10.0,SSW,12.7,-,N/A,,Clear,210,2014-03-04 04:53:00
9:53 PM,39.0,30.9,73,29.99,10.0,SSW,9.2,-,N/A,,Clear,210,2014-03-04 05:53:00
10:53 PM,37.9,30.0,73,29.96,10.0,SSW,9.2,-,N/A,,Partly Cloudy,210,2014-03-04 06:53:00
11:53 PM,37.9,30.0,73,29.93,10.0,SSW,10.4,-,N/A,,Clear,200,2014-03-04 07:53:00